sensor_id;sensor_type;location;lat;lon;timestamp;pressure;altitude;pressure_sealevel;temperature;humidity
40592;BME280;26301;42.832;23.918;2023-02-14T00:01:41;94489.72;;;-5.14;88.79
40592;BME280;26301;42.832;23.918;2023-02-14T00:04:07;94472.97;;;-5.15;89.21
40592;BME280;26301;42.832;23.918;2023-02-14T00:06:33;94482.19;;;-5.27;89.63
40592;BME280;26301;42.832;23.918;2023-02-14T00:09:06;94477.72;;;-5.35;89.59
40592;BME280;26301;42.832;23.918;2023-02-14T00:11:32;94498.50;;;-5.20;89.98
40592;BME280;26301;42.832;23.918;2023-02-14T00:13:58;94469.88;;;-5.43;88.72
40592;BME280;26301;42.832;23.918;2023-02-14T00:16:42;94483.63;;;-5.36;89.08
40592;BME280;26301;42.832;23.918;2023-02-14T00:19:11;94492.81;;;-5.35;89.54
40592;BME280;26301;42.832;23.918;2023-02-14T00:21:37;94490.50;;;-5.38;89.36
40592;BME280;26301;42.832;23.918;2023-02-14T00:24:18;94462.16;;;-5.53;88.40
40592;BME280;26301;42.832;23.918;2023-02-14T00:26:45;94443.16;;;-5.69;90.12
40592;BME280;26301;42.832;23.918;2023-02-14T00:29:14;94481.44;;;-5.40;91.24
40592;BME280;26301;42.832;23.918;2023-02-14T00:31:40;94477.38;;;-5.30;89.94
40592;BME280;26301;42.832;23.918;2023-02-14T00:34:06;94473.75;;;-5.26;90.37
40592;BME280;26301;42.832;23.918;2023-02-14T00:36:33;94452.19;;;-5.30;90.10
40592;BME280;26301;42.832;23.918;2023-02-14T00:39:01;94405.91;;;-5.64;89.68
40592;BME280;26301;42.832;23.918;2023-02-14T00:41:27;94446.25;;;-5.29;90.05
40592;BME280;26301;42.832;23.918;2023-02-14T00:43:53;94438.09;;;-5.33;88.99
40592;BME280;26301;42.832;23.918;2023-02-14T00:46:20;94439.81;;;-5.33;89.07
40592;BME280;26301;42.832;23.918;2023-02-14T00:48:47;94456.75;;;-5.11;88.45
40592;BME280;26301;42.832;23.918;2023-02-14T00:51:13;94453.53;;;-5.13;88.81
40592;BME280;26301;42.832;23.918;2023-02-14T00:53:39;94454.81;;;-5.08;88.69
40592;BME280;26301;42.832;23.918;2023-02-14T00:56:06;94441.03;;;-5.15;88.14
40592;BME280;26301;42.832;23.918;2023-02-14T00:58:32;94463.66;;;-5.02;87.92
40592;BME280;26301;42.832;23.918;2023-02-14T01:00:58;94441.25;;;-5.18;88.25
40592;BME280;26301;42.832;23.918;2023-02-14T01:03:24;94446.78;;;-5.13;87.94
40592;BME280;26301;42.832;23.918;2023-02-14T01:05:50;94434.41;;;-5.16;87.85
40592;BME280;26301;42.832;23.918;2023-02-14T01:08:16;94425.59;;;-5.10;88.19
40592;BME280;26301;42.832;23.918;2023-02-14T01:10:42;94436.25;;;-5.07;88.22
40592;BME280;26301;42.832;23.918;2023-02-14T01:13:08;94429.72;;;-5.09;88.70
40592;BME280;26301;42.832;23.918;2023-02-14T01:15:38;94440.44;;;-4.94;88.37
40592;BME280;26301;42.832;23.918;2023-02-14T01:18:04;94419.31;;;-5.04;88.52
40592;BME280;26301;42.832;23.918;2023-02-14T01:20:30;94423.38;;;-4.91;88.05
40592;BME280;26301;42.832;23.918;2023-02-14T01:22:56;94421.09;;;-4.83;87.61
40592;BME280;26301;42.832;23.918;2023-02-14T01:25:21;94389.66;;;-5.01;87.88
40592;BME280;26301;42.832;23.918;2023-02-14T01:27:47;94413.50;;;-4.94;88.26
40592;BME280;26301;42.832;23.918;2023-02-14T01:30:13;94392.63;;;-5.07;88.47
40592;BME280;26301;42.832;23.918;2023-02-14T01:32:39;94406.56;;;-4.90;88.45
40592;BME280;26301;42.832;23.918;2023-02-14T01:35:05;94404.81;;;-4.90;89.17
40592;BME280;26301;42.832;23.918;2023-02-14T01:37:31;94378.00;;;-5.02;88.99
40592;BME280;26301;42.832;23.918;2023-02-14T01:39:56;94399.88;;;-4.91;89.46
40592;BME280;26301;42.832;23.918;2023-02-14T01:42:22;94410.56;;;-4.76;90.30
40592;BME280;26301;42.832;23.918;2023-02-14T01:47:27;94390.28;;;-4.86;89.23
40592;BME280;26301;42.832;23.918;2023-02-14T01:50:00;94399.78;;;-4.78;88.75
40592;BME280;26301;42.832;23.918;2023-02-14T01:52:36;94403.75;;;-4.63;89.04
40592;BME280;26301;42.832;23.918;2023-02-14T01:55:13;94408.31;;;-4.68;88.01
40592;BME280;26301;42.832;23.918;2023-02-14T01:57:44;94377.72;;;-4.75;88.18
40592;BME280;26301;42.832;23.918;2023-02-14T02:00:12;94395.59;;;-4.55;87.79
40592;BME280;26301;42.832;23.918;2023-02-14T02:02:57;94376.91;;;-4.64;87.65
40592;BME280;26301;42.832;23.918;2023-02-14T02:05:24;94362.47;;;-4.62;87.21
40592;BME280;26301;42.832;23.918;2023-02-14T02:07:52;94363.28;;;-4.62;87.10
40592;BME280;26301;42.832;23.918;2023-02-14T02:10:19;94347.44;;;-4.64;87.53
40592;BME280;26301;42.832;23.918;2023-02-14T02:12:45;94374.03;;;-4.48;86.96
40592;BME280;26301;42.832;23.918;2023-02-14T02:15:12;94367.75;;;-4.43;86.51
40592;BME280;26301;42.832;23.918;2023-02-14T02:26:50;94359.72;;;-4.37;87.75
40592;BME280;26301;42.832;23.918;2023-02-14T02:38:20;94358.94;;;-4.37;87.86
40592;BME280;26301;42.832;23.918;2023-02-14T02:46:30;94380.03;;;-4.38;87.85
40592;BME280;26301;42.832;23.918;2023-02-14T02:55:44;94355.50;;;-4.47;87.51
40592;BME280;26301;42.832;23.918;2023-02-14T02:58:38;94349.06;;;-4.51;87.80
40592;BME280;26301;42.832;23.918;2023-02-14T03:01:10;94349.97;;;-4.64;87.50
40592;BME280;26301;42.832;23.918;2023-02-14T03:03:39;94351.59;;;-4.63;88.11
40592;BME280;26301;42.832;23.918;2023-02-14T03:06:24;94347.69;;;-4.55;87.19
40592;BME280;26301;42.832;23.918;2023-02-14T03:08:49;94339.31;;;-4.56;87.36
40592;BME280;26301;42.832;23.918;2023-02-14T03:11:15;94327.88;;;-4.60;88.62
40592;BME280;26301;42.832;23.918;2023-02-14T03:14:18;94344.38;;;-4.45;88.77
40592;BME280;26301;42.832;23.918;2023-02-14T03:17:01;94337.94;;;-4.49;87.96
40592;BME280;26301;42.832;23.918;2023-02-14T03:25:29;94326.13;;;-4.48;87.08
40592;BME280;26301;42.832;23.918;2023-02-14T03:28:15;94319.72;;;-4.52;87.34
40592;BME280;26301;42.832;23.918;2023-02-14T03:30:56;94297.16;;;-4.65;88.40
40592;BME280;26301;42.832;23.918;2023-02-14T03:33:31;94301.50;;;-4.56;87.73
40592;BME280;26301;42.832;23.918;2023-02-14T03:36:26;94299.22;;;-4.59;87.18
40592;BME280;26301;42.832;23.918;2023-02-14T03:39:17;94282.94;;;-4.77;87.04
40592;BME280;26301;42.832;23.918;2023-02-14T03:41:50;94296.34;;;-4.77;87.38
40592;BME280;26301;42.832;23.918;2023-02-14T03:44:20;94269.63;;;-4.91;88.35
40592;BME280;26301;42.832;23.918;2023-02-14T03:47:10;94276.06;;;-4.98;88.82
40592;BME280;26301;42.832;23.918;2023-02-14T03:49:45;94272.84;;;-5.00;88.71
40592;BME280;26301;42.832;23.918;2023-02-14T03:52:13;94295.53;;;-4.89;88.45
40592;BME280;26301;42.832;23.918;2023-02-14T03:54:40;94279.59;;;-5.00;88.79
40592;BME280;26301;42.832;23.918;2023-02-14T03:59:40;94287.63;;;-4.95;88.82
40592;BME280;26301;42.832;23.918;2023-02-14T04:04:47;94273.63;;;-5.22;88.09
40592;BME280;26301;42.832;23.918;2023-02-14T04:07:23;94293.34;;;-5.04;88.81
40592;BME280;26301;42.832;23.918;2023-02-14T04:09:49;94277.28;;;-5.26;89.43
40592;BME280;26301;42.832;23.918;2023-02-14T04:12:16;94287.56;;;-5.18;89.59
40592;BME280;26301;42.832;23.918;2023-02-14T04:14:42;94269.38;;;-5.21;89.99
40592;BME280;26301;42.832;23.918;2023-02-14T04:17:07;94279.66;;;-5.24;90.13
40592;BME280;26301;42.832;23.918;2023-02-14T04:19:51;94298.72;;;-5.09;89.52
40592;BME280;26301;42.832;23.918;2023-02-14T04:22:18;94290.25;;;-5.08;88.58
40592;BME280;26301;42.832;23.918;2023-02-14T04:24:43;94273.50;;;-5.20;88.23
40592;BME280;26301;42.832;23.918;2023-02-14T04:27:09;94275.81;;;-5.17;88.04
40592;BME280;26301;42.832;23.918;2023-02-14T04:29:36;94270.09;;;-5.08;87.90
40592;BME280;26301;42.832;23.918;2023-02-14T04:32:04;94268.81;;;-5.02;87.30
40592;BME280;26301;42.832;23.918;2023-02-14T04:34:30;94246.72;;;-5.10;86.25
40592;BME280;26301;42.832;23.918;2023-02-14T04:36:55;94245.34;;;-5.14;86.27
40592;BME280;26301;42.832;23.918;2023-02-14T04:39:21;94257.50;;;-5.08;86.37
40592;BME280;26301;42.832;23.918;2023-02-14T04:41:47;94258.88;;;-5.04;85.58
40592;BME280;26301;42.832;23.918;2023-02-14T04:44:12;94223.69;;;-5.28;85.98
40592;BME280;26301;42.832;23.918;2023-02-14T04:46:38;94201.91;;;-5.52;85.75
40592;BME280;26301;42.832;23.918;2023-02-14T04:49:03;94250.41;;;-5.14;86.63
40592;BME280;26301;42.832;23.918;2023-02-14T04:51:29;94240.75;;;-5.32;86.79
40592;BME280;26301;42.832;23.918;2023-02-14T04:53:55;94255.94;;;-5.33;87.66
40592;BME280;26301;42.832;23.918;2023-02-14T04:56:20;94247.59;;;-5.34;87.34
40592;BME280;26301;42.832;23.918;2023-02-14T04:58:46;94237.28;;;-5.42;87.13
40592;BME280;26301;42.832;23.918;2023-02-14T05:01:12;94254.81;;;-5.40;87.61
40592;BME280;26301;42.832;23.918;2023-02-14T05:03:37;94244.00;;;-5.54;86.85
40592;BME280;26301;42.832;23.918;2023-02-14T05:06:03;94245.41;;;-5.49;86.97
40592;BME280;26301;42.832;23.918;2023-02-14T05:08:29;94257.06;;;-5.48;87.26
40592;BME280;26301;42.832;23.918;2023-02-14T05:10:54;94258.69;;;-5.47;87.18
40592;BME280;26301;42.832;23.918;2023-02-14T05:13:20;94256.38;;;-5.51;87.32
40592;BME280;26301;42.832;23.918;2023-02-14T05:15:45;94241.69;;;-5.68;87.00
40592;BME280;26301;42.832;23.918;2023-02-14T05:18:11;94243.56;;;-5.59;86.96
40592;BME280;26301;42.832;23.918;2023-02-14T05:20:37;94254.91;;;-5.53;85.96
40592;BME280;26301;42.832;23.918;2023-02-14T05:23:02;94237.03;;;-5.61;85.73
40592;BME280;26301;42.832;23.918;2023-02-14T05:25:30;94229.44;;;-5.72;85.69
40592;BME280;26301;42.832;23.918;2023-02-14T05:27:55;94239.06;;;-5.66;86.62
40592;BME280;26301;42.832;23.918;2023-02-14T05:30:21;94238.25;;;-5.67;87.49
40592;BME280;26301;42.832;23.918;2023-02-14T05:32:51;94248.59;;;-5.59;87.44
40592;BME280;26301;42.832;23.918;2023-02-14T05:35:17;94249.81;;;-5.64;87.08
40592;BME280;26301;42.832;23.918;2023-02-14T05:37:42;94255.34;;;-5.59;86.99
40592;BME280;26301;42.832;23.918;2023-02-14T05:40:09;94232.38;;;-5.79;86.03
40592;BME280;26301;42.832;23.918;2023-02-14T05:42:37;94240.84;;;-5.80;85.53
40592;BME280;26301;42.832;23.918;2023-02-14T05:45:04;94256.81;;;-5.68;86.20
40592;BME280;26301;42.832;23.918;2023-02-14T05:47:30;94222.75;;;-5.85;86.91
40592;BME280;26301;42.832;23.918;2023-02-14T05:49:55;94244.31;;;-5.69;87.07
40592;BME280;26301;42.832;23.918;2023-02-14T05:52:21;94259.94;;;-5.53;86.31
40592;BME280;26301;42.832;23.918;2023-02-14T05:54:46;94272.44;;;-5.40;85.14
40592;BME280;26301;42.832;23.918;2023-02-14T05:57:12;94254.00;;;-5.41;85.32
40592;BME280;26301;42.832;23.918;2023-02-14T05:59:37;94262.38;;;-5.18;85.02
40592;BME280;26301;42.832;23.918;2023-02-14T06:02:03;94274.91;;;-5.05;84.29
40592;BME280;26301;42.832;23.918;2023-02-14T06:04:28;94241.22;;;-5.04;83.77
40592;BME280;26301;42.832;23.918;2023-02-14T06:06:54;94264.13;;;-4.85;83.56
40592;BME280;26301;42.832;23.918;2023-02-14T06:09:20;94259.31;;;-4.76;82.64
40592;BME280;26301;42.832;23.918;2023-02-14T06:11:45;94275.03;;;-4.62;81.92
40592;BME280;26301;42.832;23.918;2023-02-14T06:14:11;94277.88;;;-4.55;81.92
40592;BME280;26301;42.832;23.918;2023-02-14T06:16:36;94257.94;;;-4.47;81.42
40592;BME280;26301;42.832;23.918;2023-02-14T06:19:02;94248.88;;;-4.38;81.05
40592;BME280;26301;42.832;23.918;2023-02-14T06:21:27;94280.66;;;-4.03;80.88
40592;BME280;26301;42.832;23.918;2023-02-14T06:23:53;94264.84;;;-4.05;79.93
40592;BME280;26301;42.832;23.918;2023-02-14T06:26:18;94269.50;;;-3.89;78.76
40592;BME280;26301;42.832;23.918;2023-02-14T06:28:44;94281.47;;;-3.71;77.77
40592;BME280;26301;42.832;23.918;2023-02-14T06:31:18;94274.66;;;-3.59;77.02
40592;BME280;26301;42.832;23.918;2023-02-14T06:33:44;94265.19;;;-3.46;77.15
40592;BME280;26301;42.832;23.918;2023-02-14T06:36:09;94253.63;;;-3.27;77.50
40592;BME280;26301;42.832;23.918;2023-02-14T06:38:35;94263.75;;;-2.96;77.89
40592;BME280;26301;42.832;23.918;2023-02-14T06:41:08;94260.03;;;-2.92;75.75
40592;BME280;26301;42.832;23.918;2023-02-14T06:43:35;94256.81;;;-2.73;75.36
40592;BME280;26301;42.832;23.918;2023-02-14T06:46:01;94277.53;;;-2.49;74.74
40592;BME280;26301;42.832;23.918;2023-02-14T06:48:27;94265.19;;;-2.33;75.14
40592;BME280;26301;42.832;23.918;2023-02-14T06:50:53;94264.44;;;-2.14;74.46
40592;BME280;26301;42.832;23.918;2023-02-14T06:53:19;94246.75;;;-2.04;73.62
40592;BME280;26301;42.832;23.918;2023-02-14T06:55:44;94253.69;;;-1.77;73.03
40592;BME280;26301;42.832;23.918;2023-02-14T06:58:10;94233.28;;;-1.66;72.58
40592;BME280;26301;42.832;23.918;2023-02-14T07:00:36;94254.59;;;-1.39;72.18
40592;BME280;26301;42.832;23.918;2023-02-14T07:03:02;94251.13;;;-1.28;72.16
40592;BME280;26301;42.832;23.918;2023-02-14T07:05:27;94260.03;;;-1.05;71.90
40592;BME280;26301;42.832;23.918;2023-02-14T07:07:53;94263.47;;;-0.86;72.42
40592;BME280;26301;42.832;23.918;2023-02-14T07:10:19;94241.53;;;-0.78;71.76
40592;BME280;26301;42.832;23.918;2023-02-14T07:12:44;94238.00;;;-0.67;71.58
40592;BME280;26301;42.832;23.918;2023-02-14T07:15:12;94215.47;;;-0.70;71.10
40592;BME280;26301;42.832;23.918;2023-02-14T07:17:38;94252.28;;;-0.29;71.29
40592;BME280;26301;42.832;23.918;2023-02-14T07:20:04;94254.34;;;-0.14;70.24
40592;BME280;26301;42.832;23.918;2023-02-14T07:22:31;94266.63;;;0.08;70.02
40592;BME280;26301;42.832;23.918;2023-02-14T07:24:57;94263.38;;;0.16;71.33
40592;BME280;26301;42.832;23.918;2023-02-14T07:27:22;94275.03;;;0.36;71.40
40592;BME280;26301;42.832;23.918;2023-02-14T07:29:48;94256.78;;;0.41;70.92
40592;BME280;26301;42.832;23.918;2023-02-14T07:32:14;94257.06;;;0.56;69.99
40592;BME280;26301;42.832;23.918;2023-02-14T07:34:39;94254.78;;;0.71;71.26
40592;BME280;26301;42.832;23.918;2023-02-14T07:37:05;94267.69;;;0.95;71.82
40592;BME280;26301;42.832;23.918;2023-02-14T07:39:31;94231.72;;;0.90;67.13
40592;BME280;26301;42.832;23.918;2023-02-14T07:41:56;94264.38;;;1.29;66.79
40592;BME280;26301;42.832;23.918;2023-02-14T07:44:22;94233.47;;;1.16;66.65
40592;BME280;26301;42.832;23.918;2023-02-14T07:46:48;94264.19;;;1.56;66.99
40592;BME280;26301;42.832;23.918;2023-02-14T07:49:13;94263.63;;;1.71;64.26
40592;BME280;26301;42.832;23.918;2023-02-14T07:51:39;94253.13;;;1.74;65.49
40592;BME280;26301;42.832;23.918;2023-02-14T07:54:05;94259.22;;;1.81;65.07
40592;BME280;26301;42.832;23.918;2023-02-14T07:56:31;94275.66;;;1.95;62.73
40592;BME280;26301;42.832;23.918;2023-02-14T07:58:57;94262.91;;;1.95;62.56
40592;BME280;26301;42.832;23.918;2023-02-14T08:01:22;94267.41;;;2.01;64.63
40592;BME280;26301;42.832;23.918;2023-02-14T08:03:48;94286.75;;;2.20;64.51
40592;BME280;26301;42.832;23.918;2023-02-14T08:06:15;94289.47;;;2.35;63.25
40592;BME280;26301;42.832;23.918;2023-02-14T08:08:41;94281.22;;;2.41;61.47
40592;BME280;26301;42.832;23.918;2023-02-14T08:11:06;94281.38;;;2.47;62.75
40592;BME280;26301;42.832;23.918;2023-02-14T08:13:32;94300.19;;;2.63;62.89
40592;BME280;26301;42.832;23.918;2023-02-14T08:15:58;94296.53;;;2.73;61.88
40592;BME280;26301;42.832;23.918;2023-02-14T08:18:35;94294.31;;;2.87;61.23
40592;BME280;26301;42.832;23.918;2023-02-14T08:21:02;94288.56;;;2.93;60.20
40592;BME280;26301;42.832;23.918;2023-02-14T08:23:28;94284.25;;;3.10;60.67
40592;BME280;26301;42.832;23.918;2023-02-14T08:25:54;94276.59;;;3.02;60.76
40592;BME280;26301;42.832;23.918;2023-02-14T08:28:20;94301.63;;;3.23;59.23
40592;BME280;26301;42.832;23.918;2023-02-14T08:30:46;94269.72;;;3.18;56.86
40592;BME280;26301;42.832;23.918;2023-02-14T08:33:12;94280.84;;;3.34;58.10
40592;BME280;26301;42.832;23.918;2023-02-14T08:35:38;94233.69;;;2.97;57.52
40592;BME280;26301;42.832;23.918;2023-02-14T08:38:04;94273.38;;;3.24;58.54
40592;BME280;26301;42.832;23.918;2023-02-14T08:40:30;94269.38;;;3.21;58.08
40592;BME280;26301;42.832;23.918;2023-02-14T08:42:56;94289.63;;;3.39;57.33
40592;BME280;26301;42.832;23.918;2023-02-14T08:45:21;94278.63;;;3.31;57.24
40592;BME280;26301;42.832;23.918;2023-02-14T08:47:47;94284.19;;;3.42;57.09
40592;BME280;26301;42.832;23.918;2023-02-14T08:50:15;94288.19;;;3.37;58.36
40592;BME280;26301;42.832;23.918;2023-02-14T08:52:42;94278.50;;;3.16;58.02
40592;BME280;26301;42.832;23.918;2023-02-14T08:55:09;94272.75;;;3.14;57.19
40592;BME280;26301;42.832;23.918;2023-02-14T08:57:34;94291.56;;;3.21;57.27
40592;BME280;26301;42.832;23.918;2023-02-14T09:00:00;94289.34;;;3.34;57.03
40592;BME280;26301;42.832;23.918;2023-02-14T09:02:26;94249.97;;;3.04;58.95
40592;BME280;26301;42.832;23.918;2023-02-14T09:04:51;94283.91;;;3.29;57.55
40592;BME280;26301;42.832;23.918;2023-02-14T09:07:17;94258.69;;;3.26;57.21
40592;BME280;26301;42.832;23.918;2023-02-14T09:09:44;94257.78;;;3.19;57.99
40592;BME280;26301;42.832;23.918;2023-02-14T09:12:10;94272.44;;;3.25;58.34
40592;BME280;26301;42.832;23.918;2023-02-14T09:14:37;94261.72;;;3.30;57.63
40592;BME280;26301;42.832;23.918;2023-02-14T09:17:04;94279.72;;;3.44;57.79
40592;BME280;26301;42.832;23.918;2023-02-14T09:19:34;94263.00;;;3.26;59.66
40592;BME280;26301;42.832;23.918;2023-02-14T09:22:00;94250.09;;;3.19;60.61
40592;BME280;26301;42.832;23.918;2023-02-14T09:24:28;94275.91;;;3.32;59.50
40592;BME280;26301;42.832;23.918;2023-02-14T09:26:55;94253.00;;;3.16;59.73
40592;BME280;26301;42.832;23.918;2023-02-14T09:29:24;94262.88;;;3.11;63.27
40592;BME280;26301;42.832;23.918;2023-02-14T09:31:58;94275.31;;;3.22;60.51
40592;BME280;26301;42.832;23.918;2023-02-14T09:34:24;94279.59;;;3.30;62.70
40592;BME280;26301;42.832;23.918;2023-02-14T09:36:50;94262.50;;;3.30;61.03
40592;BME280;26301;42.832;23.918;2023-02-14T09:39:35;94246.59;;;3.20;62.32
40592;BME280;26301;42.832;23.918;2023-02-14T09:44:56;94252.94;;;3.24;61.52
40592;BME280;26301;42.832;23.918;2023-02-14T09:47:41;94243.72;;;3.23;61.67
40592;BME280;26301;42.832;23.918;2023-02-14T09:50:28;94247.22;;;3.22;61.98
40592;BME280;26301;42.832;23.918;2023-02-14T09:53:00;94263.28;;;3.39;60.34
40592;BME280;26301;42.832;23.918;2023-02-14T09:55:35;94253.91;;;3.31;60.47
40592;BME280;26301;42.832;23.918;2023-02-14T09:58:12;94263.94;;;3.41;60.71
40592;BME280;26301;42.832;23.918;2023-02-14T10:00:47;94260.72;;;3.55;60.74
40592;BME280;26301;42.832;23.918;2023-02-14T10:15:19;94212.44;;;3.60;60.64
40592;BME280;26301;42.832;23.918;2023-02-14T10:17:59;94231.19;;;3.92;59.97
40592;BME280;26301;42.832;23.918;2023-02-14T10:20:28;94227.28;;;4.04;60.63
40592;BME280;26301;42.832;23.918;2023-02-14T10:25:27;94232.69;;;4.32;57.33
40592;BME280;26301;42.832;23.918;2023-02-14T10:27:55;94219.00;;;4.25;58.72
40592;BME280;26301;42.832;23.918;2023-02-14T10:30:22;94225.03;;;4.32;58.65
40592;BME280;26301;42.832;23.918;2023-02-14T10:33:04;94229.59;;;4.45;55.73
40592;BME280;26301;42.832;23.918;2023-02-14T10:35:50;94224.44;;;4.22;57.40
40592;BME280;26301;42.832;23.918;2023-02-14T10:38:31;94206.03;;;4.04;58.17
40592;BME280;26301;42.832;23.918;2023-02-14T10:41:19;94227.56;;;4.09;58.36
40592;BME280;26301;42.832;23.918;2023-02-14T10:54:24;94202.19;;;4.00;59.26
40592;BME280;26301;42.832;23.918;2023-02-14T11:02:03;94199.84;;;4.21;57.08
40592;BME280;26301;42.832;23.918;2023-02-14T11:04:30;94203.59;;;4.33;57.16
40592;BME280;26301;42.832;23.918;2023-02-14T11:06:56;94188.13;;;4.27;57.89
40592;BME280;26301;42.832;23.918;2023-02-14T11:09:22;94211.69;;;4.45;56.54
40592;BME280;26301;42.832;23.918;2023-02-14T11:11:54;94199.72;;;4.38;57.20
40592;BME280;26301;42.832;23.918;2023-02-14T11:14:28;94215.63;;;4.48;56.91
40592;BME280;26301;42.832;23.918;2023-02-14T11:16:56;94206.78;;;4.35;57.89
40592;BME280;26301;42.832;23.918;2023-02-14T11:19:28;94203.66;;;4.25;57.82
40592;BME280;26301;42.832;23.918;2023-02-14T11:21:56;94204.91;;;4.29;57.71
40592;BME280;26301;42.832;23.918;2023-02-14T11:24:37;94182.75;;;4.22;59.08
40592;BME280;26301;42.832;23.918;2023-02-14T11:27:16;94184.78;;;4.26;58.44
40592;BME280;26301;42.832;23.918;2023-02-14T11:29:46;94215.72;;;4.40;59.21
40592;BME280;26301;42.832;23.918;2023-02-14T11:32:24;94199.19;;;4.27;57.89
40592;BME280;26301;42.832;23.918;2023-02-14T11:39:51;94181.28;;;3.96;60.32
40592;BME280;26301;42.832;23.918;2023-02-14T11:42:41;94206.09;;;3.87;61.29
40592;BME280;26301;42.832;23.918;2023-02-14T11:45:33;94195.06;;;3.95;60.75
40592;BME280;26301;42.832;23.918;2023-02-14T11:51:13;94192.16;;;3.67;61.81
40592;BME280;26301;42.832;23.918;2023-02-14T11:53:45;94175.66;;;3.47;63.21
40592;BME280;26301;42.832;23.918;2023-02-14T11:56:12;94180.19;;;3.28;63.68
40592;BME280;26301;42.832;23.918;2023-02-14T11:58:48;94197.09;;;3.29;65.69
40592;BME280;26301;42.832;23.918;2023-02-14T12:01:24;94178.94;;;3.16;65.91
40592;BME280;26301;42.832;23.918;2023-02-14T12:03:51;94169.88;;;3.05;67.37
40592;BME280;26301;42.832;23.918;2023-02-14T12:06:28;94159.38;;;2.92;67.53
40592;BME280;26301;42.832;23.918;2023-02-14T12:11:36;94172.44;;;2.97;68.13
40592;BME280;26301;42.832;23.918;2023-02-14T12:14:02;94166.06;;;2.93;68.08
40592;BME280;26301;42.832;23.918;2023-02-14T12:16:41;94159.53;;;2.82;68.41
40592;BME280;26301;42.832;23.918;2023-02-14T12:19:19;94157.16;;;2.89;68.35
40592;BME280;26301;42.832;23.918;2023-02-14T12:21:56;94165.56;;;3.06;67.66
40592;BME280;26301;42.832;23.918;2023-02-14T12:24:28;94183.75;;;3.11;68.44
40592;BME280;26301;42.832;23.918;2023-02-14T12:29:50;94159.41;;;2.84;69.52
40592;BME280;26301;42.832;23.918;2023-02-14T12:32:23;94185.06;;;2.90;71.02
40592;BME280;26301;42.832;23.918;2023-02-14T12:34:50;94184.59;;;2.87;71.16
40592;BME280;26301;42.832;23.918;2023-02-14T12:42:51;94176.78;;;2.64;72.33
40592;BME280;26301;42.832;23.918;2023-02-14T12:45:28;94167.88;;;2.60;73.33
40592;BME280;26301;42.832;23.918;2023-02-14T12:53:33;94173.94;;;2.50;73.75
40592;BME280;26301;42.832;23.918;2023-02-14T12:56:33;94168.66;;;2.52;73.42
40592;BME280;26301;42.832;23.918;2023-02-14T13:04:57;94159.59;;;2.25;75.13
40592;BME280;26301;42.832;23.918;2023-02-14T13:10:22;94172.81;;;2.37;74.38
40592;BME280;26301;42.832;23.918;2023-02-14T13:21:00;94163.56;;;2.19;75.03
40592;BME280;26301;42.832;23.918;2023-02-14T13:23:33;94160.22;;;2.19;74.97
40592;BME280;26301;42.832;23.918;2023-02-14T13:26:10;94141.28;;;2.05;75.69
40592;BME280;26301;42.832;23.918;2023-02-14T13:28:38;94164.19;;;2.13;75.22
40592;BME280;26301;42.832;23.918;2023-02-14T13:31:09;94146.53;;;2.12;75.78
40592;BME280;26301;42.832;23.918;2023-02-14T13:33:40;94155.59;;;2.22;75.22
40592;BME280;26301;42.832;23.918;2023-02-14T13:36:08;94139.22;;;2.09;75.37
40592;BME280;26301;42.832;23.918;2023-02-14T13:38:42;94155.47;;;2.24;74.69
40592;BME280;26301;42.832;23.918;2023-02-14T13:41:10;94158.66;;;2.26;75.00
40592;BME280;26301;42.832;23.918;2023-02-14T13:43:55;94168.22;;;2.32;74.41
40592;BME280;26301;42.832;23.918;2023-02-14T13:49:20;94132.50;;;2.16;76.08
40592;BME280;26301;42.832;23.918;2023-02-14T13:51:54;94156.25;;;2.33;76.43
40592;BME280;26301;42.832;23.918;2023-02-14T13:54:27;94166.13;;;2.27;73.11
40592;BME280;26301;42.832;23.918;2023-02-14T13:56:54;94169.00;;;2.24;73.65
40592;BME280;26301;42.832;23.918;2023-02-14T13:59:33;94162.00;;;2.26;74.87
40592;BME280;26301;42.832;23.918;2023-02-14T14:04:52;94164.06;;;2.23;74.24
40592;BME280;26301;42.832;23.918;2023-02-14T14:07:23;94134.75;;;2.02;74.52
40592;BME280;26301;42.832;23.918;2023-02-14T14:09:52;94150.22;;;2.17;73.32
40592;BME280;26301;42.832;23.918;2023-02-14T14:20:01;94117.84;;;1.93;73.51
40592;BME280;26301;42.832;23.918;2023-02-14T14:22:28;94124.53;;;2.02;74.79
40592;BME280;26301;42.832;23.918;2023-02-14T14:25:00;94117.38;;;1.98;74.17
40592;BME280;26301;42.832;23.918;2023-02-14T14:27:39;94119.47;;;2.11;72.29
40592;BME280;26301;42.832;23.918;2023-02-14T14:30:17;94139.50;;;2.22;72.05
40592;BME280;26301;42.832;23.918;2023-02-14T14:32:43;94141.28;;;2.21;72.43
40592;BME280;26301;42.832;23.918;2023-02-14T14:37:47;94125.31;;;2.19;72.07
40592;BME280;26301;42.832;23.918;2023-02-14T14:40:21;94136.50;;;2.18;71.14
40592;BME280;26301;42.832;23.918;2023-02-14T14:42:49;94125.03;;;2.14;72.61
40592;BME280;26301;42.832;23.918;2023-02-14T14:45:21;94126.31;;;2.02;71.16
40592;BME280;26301;42.832;23.918;2023-02-14T14:47:50;94127.25;;;1.93;72.08
40592;BME280;26301;42.832;23.918;2023-02-14T14:50:21;94125.31;;;1.95;72.35
40592;BME280;26301;42.832;23.918;2023-02-14T14:52:49;94134.09;;;2.09;72.95
40592;BME280;26301;42.832;23.918;2023-02-14T14:55:21;94135.38;;;2.21;71.49
40592;BME280;26301;42.832;23.918;2023-02-14T14:57:54;94147.00;;;2.23;71.76
40592;BME280;26301;42.832;23.918;2023-02-14T15:05:41;94145.91;;;2.26;72.23
40592;BME280;26301;42.832;23.918;2023-02-14T15:13:36;94156.09;;;2.18;74.15
40592;BME280;26301;42.832;23.918;2023-02-14T15:16:26;94140.78;;;2.10;74.36
40592;BME280;26301;42.832;23.918;2023-02-14T15:18:59;94129.78;;;2.01;74.09
40592;BME280;26301;42.832;23.918;2023-02-14T15:21:31;94152.91;;;2.24;73.09
40592;BME280;26301;42.832;23.918;2023-02-14T15:23:58;94162.31;;;2.23;72.71
40592;BME280;26301;42.832;23.918;2023-02-14T15:26:33;94166.63;;;2.23;73.59
40592;BME280;26301;42.832;23.918;2023-02-14T15:29:04;94143.81;;;2.05;75.34
40592;BME280;26301;42.832;23.918;2023-02-14T15:31:34;94146.84;;;2.09;77.02
40592;BME280;26301;42.832;23.918;2023-02-14T15:34:01;94145.06;;;2.01;76.24